createdAt,value
2023-01-17T00:02:19.090Z,2.84
2023-01-17T00:05:05.724Z,3.04
2023-01-17T00:07:52.623Z,2.69
2023-01-17T00:10:23.529Z,2.57
2023-01-17T00:12:56.898Z,2.50
2023-01-17T00:15:26.524Z,2.44
2023-01-17T00:17:55.290Z,2.59
2023-01-17T00:20:43.939Z,2.48
2023-01-17T00:23:39.746Z,2.37
2023-01-17T00:26:13.803Z,2.41
2023-01-17T00:28:43.442Z,2.39
2023-01-17T00:31:12.725Z,2.48
2023-01-17T00:33:41.196Z,2.44
2023-01-17T00:36:09.641Z,2.56
2023-01-17T00:38:39.534Z,2.61
2023-01-17T00:41:10.008Z,2.73
2023-01-17T00:43:56.211Z,2.76
2023-01-17T00:46:42.565Z,3.09
2023-01-17T00:49:29.419Z,3.14
2023-01-17T00:52:16.060Z,3.17
2023-01-17T00:55:02.708Z,3.32
2023-01-17T00:57:49.369Z,3.47
2023-01-17T01:00:38.655Z,3.38
2023-01-17T01:03:30.064Z,3.60
2023-01-17T01:06:16.915Z,3.56
2023-01-17T01:09:03.353Z,3.53
2023-01-17T01:11:49.996Z,3.53
2023-01-17T01:14:36.885Z,3.35
2023-01-17T01:17:23.717Z,3.54
2023-01-17T01:20:10.464Z,3.37
2023-01-17T01:22:56.990Z,3.29
2023-01-17T01:25:43.359Z,3.39
2023-01-17T01:28:32.061Z,3.46
2023-01-17T01:31:22.286Z,3.55
2023-01-17T01:33:53.913Z,3.36
2023-01-17T01:36:21.979Z,3.49
2023-01-17T01:38:50.511Z,3.53
2023-01-17T01:41:18.780Z,3.54
2023-01-17T01:43:52.155Z,3.33
2023-01-17T01:46:39.391Z,3.27
2023-01-17T01:49:19.551Z,2.95
2023-01-17T01:51:56.109Z,2.76
2023-01-17T01:54:28.791Z,2.78
2023-01-17T01:56:59.457Z,2.63
2023-01-17T01:59:28.184Z,2.49
2023-01-17T02:01:58.429Z,2.35
2023-01-17T02:04:28.624Z,2.63
2023-01-17T02:07:04.219Z,2.80
2023-01-17T02:09:32.350Z,2.71
2023-01-17T02:12:00.709Z,2.73
2023-01-17T02:14:28.965Z,2.90
2023-01-17T02:17:40.229Z,2.74
2023-01-17T02:20:35.583Z,3.00
2023-01-17T02:23:24.492Z,2.99
2023-01-17T02:26:10.876Z,3.06
2023-01-17T02:29:18.151Z,3.06
2023-01-17T02:31:58.442Z,3.07
2023-01-17T02:34:51.859Z,3.08
2023-01-17T02:37:27.208Z,3.11
2023-01-17T02:40:30.529Z,3.19
2023-01-17T02:43:05.827Z,3.15
2023-01-17T02:45:33.748Z,3.27
2023-01-17T02:48:01.662Z,3.17
2023-01-17T02:51:00.368Z,2.96
2023-01-17T02:53:31.294Z,3.06
2023-01-17T02:59:52.283Z,2.80
2023-01-17T03:02:46.413Z,2.66
2023-01-17T03:05:21.344Z,2.80
2023-01-17T03:07:51.345Z,2.81
2023-01-17T03:10:20.637Z,2.79
2023-01-17T03:12:48.459Z,2.87
2023-01-17T03:15:17.852Z,2.96
2023-01-17T03:17:50.195Z,2.94
2023-01-17T03:20:22.577Z,2.98
2023-01-17T03:22:50.803Z,2.99
2023-01-17T03:25:21.701Z,3.20
2023-01-17T03:27:49.706Z,3.29
2023-01-17T03:30:18.045Z,3.36
2023-01-17T03:32:45.986Z,3.51
2023-01-17T03:35:13.960Z,3.56
2023-01-17T03:37:43.276Z,3.32
2023-01-17T03:40:11.528Z,3.13
2023-01-17T03:42:40.074Z,3.04
2023-01-17T03:45:08.559Z,3.10
2023-01-17T03:47:36.724Z,3.06
2023-01-17T03:50:05.740Z,2.95
2023-01-17T03:52:33.775Z,2.91
2023-01-17T03:55:02.848Z,2.79
2023-01-17T03:57:30.655Z,2.83
2023-01-17T03:59:58.710Z,2.80
2023-01-17T04:02:26.614Z,2.73
2023-01-17T04:04:54.894Z,2.68
2023-01-17T04:07:23.263Z,2.65
2023-01-17T04:09:51.323Z,2.75
2023-01-17T04:12:19.352Z,2.70
2023-01-17T04:14:48.387Z,2.76
2023-01-17T04:17:18.970Z,2.77
2023-01-17T04:19:47.718Z,2.76
2023-01-17T04:22:15.722Z,2.75
2023-01-17T04:24:43.818Z,2.76
2023-01-17T04:27:14.472Z,2.75
2023-01-17T04:29:42.622Z,2.79
2023-01-17T04:32:10.688Z,2.79
2023-01-17T04:34:38.686Z,2.73
2023-01-17T04:37:06.644Z,2.73
2023-01-17T04:39:34.539Z,2.76
2023-01-17T04:42:03.183Z,2.76
2023-01-17T04:44:31.103Z,2.65
2023-01-17T04:46:59.039Z,2.71
2023-01-17T04:49:26.827Z,2.69
2023-01-17T04:51:54.866Z,2.69
2023-01-17T04:54:22.854Z,2.75
2023-01-17T04:56:50.675Z,2.76
2023-01-17T04:59:18.737Z,2.91
2023-01-17T05:01:49.691Z,2.90
2023-01-17T05:04:17.839Z,2.76
2023-01-17T05:06:45.801Z,2.81
2023-01-17T05:09:13.744Z,2.89
2023-01-17T05:11:41.656Z,2.86
2023-01-17T05:14:11.007Z,2.87
2023-01-17T05:16:38.956Z,2.94
2023-01-17T05:19:06.952Z,3.08
2023-01-17T05:21:35.018Z,3.04
2023-01-17T05:24:02.922Z,2.99
2023-01-17T05:26:31.144Z,3.02
2023-01-17T05:28:59.018Z,3.18
2023-01-17T05:31:27.069Z,3.10
2023-01-17T05:33:55.018Z,3.00
2023-01-17T05:36:22.846Z,2.94
2023-01-17T05:38:50.766Z,2.93
2023-01-17T05:41:18.677Z,2.90
2023-01-17T05:43:46.873Z,2.82
2023-01-17T05:46:16.429Z,2.94
2023-01-17T05:48:44.470Z,3.06
2023-01-17T05:51:12.454Z,3.14
2023-01-17T05:53:40.471Z,3.17
2023-01-17T05:56:08.421Z,3.24
2023-01-17T05:58:36.480Z,3.31
2023-01-17T06:01:04.428Z,3.30
2023-01-17T06:03:32.364Z,3.31
2023-01-17T06:06:00.336Z,3.37
2023-01-17T06:08:28.363Z,3.34
2023-01-17T06:10:59.664Z,3.32
2023-01-17T06:13:27.655Z,3.25
2023-01-17T06:15:57.924Z,3.09
2023-01-17T06:18:26.027Z,3.12
2023-01-17T06:20:55.349Z,3.16
2023-01-17T06:23:24.125Z,3.18
2023-01-17T06:25:52.343Z,3.27
2023-01-17T06:28:22.944Z,3.21
2023-01-17T06:30:53.725Z,3.33
2023-01-17T06:33:21.696Z,3.44
2023-01-17T06:35:51.537Z,3.47
2023-01-17T06:38:20.150Z,3.61
2023-01-17T06:40:48.292Z,3.58
2023-01-17T06:43:16.436Z,3.68
2023-01-17T06:45:44.380Z,3.71
2023-01-17T06:48:12.408Z,3.72
2023-01-17T06:50:40.440Z,3.79
2023-01-17T06:53:08.385Z,3.84
2023-01-17T06:55:39.806Z,3.78
2023-01-17T06:58:09.569Z,3.82
2023-01-17T07:00:40.284Z,3.93
2023-01-17T07:03:21.020Z,3.95
2023-01-17T07:05:49.464Z,4.10
2023-01-17T07:08:18.697Z,4.27
2023-01-17T07:10:48.898Z,4.45
2023-01-17T07:13:17.065Z,4.52
2023-01-17T07:15:44.992Z,4.67
2023-01-17T07:18:13.358Z,4.84
2023-01-17T07:20:44.214Z,4.90
2023-01-17T07:23:12.557Z,5.04
2023-01-17T07:25:40.580Z,5.01
2023-01-17T07:28:09.165Z,5.09
2023-01-17T07:30:37.068Z,5.31
2023-01-17T07:33:05.740Z,5.27
2023-01-17T07:35:34.415Z,5.36
2023-01-17T07:38:02.475Z,5.32
2023-01-17T07:40:30.817Z,5.22
2023-01-17T07:43:02.621Z,5.24
2023-01-17T07:45:32.436Z,5.51
2023-01-17T07:48:00.658Z,5.48
2023-01-17T07:50:28.541Z,5.68
2023-01-17T07:52:56.659Z,5.88
2023-01-17T07:55:24.572Z,5.96
2023-01-17T07:57:52.491Z,5.77
2023-01-17T08:00:21.617Z,5.85
2023-01-17T08:02:49.991Z,5.66
2023-01-17T08:05:18.062Z,5.73
2023-01-17T08:07:45.935Z,5.96
2023-01-17T08:10:18.196Z,5.89
2023-01-17T08:12:48.264Z,6.19
2023-01-17T08:15:18.022Z,6.07
2023-01-17T08:17:49.947Z,5.96
2023-01-17T08:20:18.117Z,5.97
2023-01-17T08:22:46.145Z,6.08
2023-01-17T08:25:14.200Z,6.15
2023-01-17T08:27:42.149Z,6.19
2023-01-17T08:30:10.927Z,6.52
2023-01-17T08:32:41.507Z,6.64
2023-01-17T08:35:10.487Z,6.75
2023-01-17T08:37:39.320Z,7.16
2023-01-17T08:40:09.028Z,7.35
2023-01-17T08:42:40.410Z,7.25
2023-01-17T08:45:10.273Z,7.78
2023-01-17T08:47:38.373Z,8.10
2023-01-17T08:50:07.227Z,8.31
2023-01-17T08:52:35.253Z,8.19
2023-01-17T08:55:03.869Z,8.00
2023-01-17T08:57:33.083Z,8.39
2023-01-17T09:00:00.783Z,8.41
2023-01-17T09:02:28.631Z,8.22
2023-01-17T09:04:56.397Z,8.24
2023-01-17T09:07:25.394Z,8.80
2023-01-17T09:09:53.866Z,9.16
2023-01-17T09:12:22.709Z,9.33
2023-01-17T09:14:50.662Z,9.37
2023-01-17T09:17:18.328Z,9.70
2023-01-17T09:19:47.718Z,10.12
2023-01-17T09:22:15.956Z,9.80
2023-01-17T09:24:44.336Z,10.14
2023-01-17T09:27:12.263Z,10.12
2023-01-17T09:29:40.260Z,10.49
2023-01-17T09:32:08.219Z,10.73
2023-01-17T09:34:36.140Z,10.78
2023-01-17T09:37:04.362Z,10.86
2023-01-17T09:39:32.227Z,10.90
2023-01-17T09:42:00.117Z,11.22
2023-01-17T09:44:35.867Z,11.50
2023-01-17T09:47:16.455Z,11.60
2023-01-17T09:49:48.060Z,11.54
2023-01-17T09:52:21.301Z,11.68
2023-01-17T09:54:51.102Z,11.71
2023-01-17T09:57:46.807Z,11.87
2023-01-17T10:00:49.888Z,11.70
2023-01-17T10:03:26.875Z,12.06
2023-01-17T10:06:27.975Z,12.08
2023-01-17T10:09:40.410Z,12.09
2023-01-17T10:12:18.896Z,11.95
2023-01-17T10:15:07.409Z,11.92
2023-01-17T10:18:06.541Z,11.90
2023-01-17T10:20:49.809Z,12.16
2023-01-17T10:23:31.034Z,12.20
2023-01-17T10:26:05.146Z,11.87
2023-01-17T10:28:41.041Z,12.00
2023-01-17T10:31:16.838Z,11.62
2023-01-17T10:34:12.171Z,11.73
2023-01-17T10:36:44.943Z,11.00
2023-01-17T10:39:24.642Z,10.89
2023-01-17T10:41:56.799Z,11.11
2023-01-17T10:44:59.585Z,11.08
2023-01-17T10:47:33.465Z,11.03
2023-01-17T10:50:05.404Z,11.06
2023-01-17T10:52:53.138Z,10.91
2023-01-17T10:55:39.210Z,10.91
2023-01-17T10:58:12.696Z,10.71
2023-01-17T11:00:45.612Z,10.72
2023-01-17T11:03:16.494Z,10.68
2023-01-17T11:05:44.654Z,10.68
2023-01-17T11:08:15.839Z,10.75
2023-01-17T11:10:47.487Z,10.97
2023-01-17T11:13:24.118Z,11.17
2023-01-17T11:15:57.895Z,11.26
2023-01-17T11:18:29.876Z,11.47
2023-01-17T11:21:16.185Z,11.67
2023-01-17T11:23:47.073Z,11.86
2023-01-17T11:26:26.406Z,12.08
2023-01-17T11:29:26.143Z,11.86
2023-01-17T11:31:58.793Z,11.83
2023-01-17T11:34:32.279Z,11.84
2023-01-17T11:37:18.679Z,11.96
2023-01-17T11:39:50.313Z,11.82
2023-01-17T11:42:33.886Z,11.36
2023-01-17T11:45:38.005Z,11.43
2023-01-17T11:48:09.014Z,11.48
2023-01-17T11:50:46.772Z,11.39
2023-01-17T11:53:28.239Z,11.36
2023-01-17T11:56:06.219Z,11.29
2023-01-17T11:58:41.407Z,10.94
2023-01-17T12:01:23.211Z,10.95
2023-01-17T12:04:24.438Z,11.15
2023-01-17T12:07:04.514Z,11.37
2023-01-17T12:09:48.135Z,11.63
2023-01-17T12:12:42.548Z,11.28
2023-01-17T12:15:22.669Z,11.53
2023-01-17T12:18:12.149Z,12.07
2023-01-17T12:20:41.726Z,12.48
2023-01-17T12:23:34.042Z,12.45
2023-01-17T12:26:07.962Z,12.39
2023-01-17T12:29:04.842Z,12.61
2023-01-17T12:31:54.337Z,12.44
2023-01-17T12:34:32.376Z,12.57
2023-01-17T12:37:18.275Z,13.27
2023-01-17T12:40:18.142Z,13.95
2023-01-17T12:43:26.890Z,14.37
2023-01-17T12:45:54.940Z,14.33
2023-01-17T12:48:29.578Z,14.27
2023-01-17T12:51:05.274Z,13.71
2023-01-17T12:53:51.870Z,13.99
2023-01-17T12:56:29.941Z,13.47
2023-01-17T12:59:12.800Z,13.34
2023-01-17T13:01:57.743Z,12.99
2023-01-17T13:04:57.737Z,13.16
2023-01-17T13:08:08.879Z,13.24
2023-01-17T13:11:04.271Z,13.03
2023-01-17T13:13:33.443Z,13.05
2023-01-17T13:16:11.992Z,12.82
2023-01-17T13:18:46.653Z,12.71
2023-01-17T13:21:32.331Z,12.52
2023-01-17T13:24:02.305Z,12.34
2023-01-17T13:26:36.805Z,12.07
2023-01-17T13:29:43.489Z,11.85
2023-01-17T13:32:23.479Z,11.47
2023-01-17T13:35:12.587Z,11.03
2023-01-17T13:37:59.083Z,10.53
2023-01-17T13:40:52.963Z,10.41
2023-01-17T13:43:27.882Z,10.36
2023-01-17T13:46:00.036Z,10.18
2023-01-17T13:48:41.118Z,10.01
2023-01-17T13:51:10.446Z,9.86
2023-01-17T13:53:41.231Z,9.77
2023-01-17T13:56:29.588Z,9.78
2023-01-17T13:59:03.439Z,9.53
2023-01-17T14:01:38.754Z,9.57
2023-01-17T14:04:12.138Z,9.42
2023-01-17T14:06:44.799Z,9.47
2023-01-17T14:09:27.844Z,9.42
2023-01-17T14:12:24.874Z,9.36
2023-01-17T14:14:55.931Z,9.42
2023-01-17T14:17:25.836Z,9.37
2023-01-17T14:19:58.401Z,9.39
2023-01-17T14:22:41.826Z,9.40
2023-01-17T14:25:15.196Z,9.33
2023-01-17T14:27:43.216Z,9.32
2023-01-17T14:30:17.908Z,9.28
2023-01-17T14:33:09.079Z,9.26
2023-01-17T14:35:49.739Z,9.25
2023-01-17T14:38:23.925Z,9.21
2023-01-17T14:40:55.825Z,9.25
2023-01-17T14:43:26.842Z,9.29
2023-01-17T14:46:04.401Z,9.29
2023-01-17T14:48:32.489Z,9.30
2023-01-17T14:51:01.393Z,9.42
2023-01-17T14:53:33.610Z,9.40
2023-01-17T14:56:17.116Z,9.31
2023-01-17T14:58:46.852Z,9.29
2023-01-17T15:01:20.236Z,9.34
2023-01-17T15:03:58.562Z,9.36
2023-01-17T15:06:46.822Z,9.40
2023-01-17T15:09:23.008Z,9.46
2023-01-17T15:11:53.594Z,9.44
2023-01-17T15:14:38.146Z,9.42
2023-01-17T15:17:26.637Z,9.35
2023-01-17T15:19:59.845Z,9.34
2023-01-17T15:22:30.060Z,9.33
2023-01-17T15:27:41.845Z,9.44
2023-01-17T15:52:27.444Z,9.09
2023-01-17T15:57:56.169Z,9.13
2023-01-17T16:00:38.005Z,9.08
2023-01-17T16:03:25.876Z,9.11
2023-01-17T16:05:57.204Z,9.04
2023-01-17T16:08:40.318Z,8.99
2023-01-17T16:11:11.916Z,8.95
2023-01-17T16:13:42.646Z,8.94
2023-01-17T16:16:12.254Z,8.98
2023-01-17T16:18:41.493Z,8.90
2023-01-17T16:21:17.430Z,8.90
2023-01-17T16:23:46.527Z,8.81
2023-01-17T16:26:15.840Z,8.78
2023-01-17T16:28:44.247Z,8.75
2023-01-17T16:31:12.725Z,8.68
2023-01-17T16:33:42.294Z,8.74
2023-01-17T16:36:15.508Z,8.74
2023-01-17T16:38:45.584Z,8.72
2023-01-17T16:41:13.703Z,8.69
2023-01-17T16:43:42.141Z,8.63
2023-01-17T16:46:12.491Z,8.61
2023-01-17T16:48:41.020Z,8.57
2023-01-17T16:51:09.582Z,8.61
2023-01-17T16:53:38.994Z,8.62
2023-01-17T16:56:17.480Z,8.57
2023-01-17T16:58:48.279Z,8.53
2023-01-17T17:01:21.231Z,8.52
2023-01-17T17:03:49.932Z,8.56
2023-01-17T17:06:18.555Z,8.58
2023-01-17T17:08:47.847Z,8.51
2023-01-17T17:11:23.185Z,8.61
2023-01-17T17:13:52.440Z,8.59
2023-01-17T17:16:24.503Z,8.69
2023-01-17T17:18:59.178Z,8.66
2023-01-17T17:21:29.407Z,8.66
2023-01-17T17:24:00.391Z,8.56
2023-01-17T17:26:32.652Z,8.47
2023-01-17T17:29:02.174Z,8.50
2023-01-17T17:31:30.589Z,8.48
2023-01-17T17:34:01.622Z,8.37
2023-01-17T17:36:30.602Z,8.31
2023-01-17T17:38:59.546Z,8.26
2023-01-17T17:41:36.272Z,8.12
2023-01-17T17:44:05.486Z,8.04
2023-01-17T17:46:34.165Z,8.02
2023-01-17T17:49:02.634Z,7.98
2023-01-17T17:51:36.544Z,8.01
2023-01-17T17:54:07.668Z,7.94
2023-01-17T17:56:38.143Z,8.00
2023-01-17T17:59:09.439Z,7.91
2023-01-17T18:01:41.505Z,7.74
2023-01-17T18:04:10.147Z,7.57
2023-01-17T18:06:39.696Z,7.76
2023-01-17T18:09:10.216Z,7.57
2023-01-17T18:11:42.987Z,7.50
2023-01-17T18:14:14.902Z,7.66
2023-01-17T18:16:45.221Z,7.77
2023-01-17T18:19:24.377Z,7.77
2023-01-17T18:21:54.178Z,7.82
2023-01-17T18:24:24.333Z,7.86
2023-01-17T18:26:56.268Z,7.73
2023-01-17T18:29:26.360Z,7.83
2023-01-17T18:31:55.447Z,7.76
2023-01-17T18:34:30.269Z,7.78
2023-01-17T18:36:59.119Z,7.72
2023-01-17T18:39:29.880Z,7.59
2023-01-17T18:41:59.053Z,7.25
2023-01-17T18:44:27.866Z,7.31
2023-01-17T18:47:04.876Z,7.24
2023-01-17T18:49:34.401Z,7.32
2023-01-17T18:52:02.694Z,7.37
2023-01-17T18:54:32.362Z,6.96
2023-01-17T18:57:00.650Z,7.30
2023-01-17T18:59:29.342Z,7.28
2023-01-17T19:01:59.205Z,7.04
2023-01-17T19:04:28.942Z,6.44
2023-01-17T19:06:57.090Z,6.36
2023-01-17T19:09:25.206Z,6.51
2023-01-17T19:11:53.194Z,6.33
2023-01-17T19:14:21.240Z,6.48
2023-01-17T19:16:49.179Z,6.64
2023-01-17T19:19:17.079Z,6.73
2023-01-17T19:21:45.081Z,6.70
2023-01-17T19:24:13.478Z,6.76
2023-01-17T19:26:42.411Z,6.65
2023-01-17T19:29:10.702Z,6.79
2023-01-17T19:31:43.139Z,6.86
2023-01-17T19:34:14.098Z,6.65
2023-01-17T19:36:42.818Z,6.74
2023-01-17T19:39:11.099Z,6.76
2023-01-17T19:41:44.019Z,6.69
2023-01-17T19:44:13.833Z,6.45
2023-01-17T19:46:41.939Z,6.56
2023-01-17T19:49:10.098Z,6.56
2023-01-17T19:51:39.882Z,6.63
2023-01-17T19:54:08.598Z,6.61
2023-01-17T19:56:36.983Z,6.62
2023-01-17T19:59:05.055Z,6.67
2023-01-17T20:01:34.507Z,6.55
2023-01-17T20:04:03.735Z,6.71
2023-01-17T20:06:34.835Z,6.75
2023-01-17T20:09:04.808Z,6.72
2023-01-17T20:11:33.120Z,6.81
2023-01-17T20:14:01.154Z,6.83
2023-01-17T20:16:31.219Z,6.78
2023-01-17T20:19:00.458Z,6.60
2023-01-17T20:21:30.576Z,6.48
2023-01-17T20:24:00.304Z,6.53
2023-01-17T20:26:35.023Z,6.32
2023-01-17T20:29:10.787Z,6.17
2023-01-17T20:31:41.751Z,6.09
2023-01-17T20:34:13.076Z,6.24
2023-01-17T20:36:42.303Z,6.22
2023-01-17T20:39:11.348Z,6.21
2023-01-17T20:41:45.070Z,6.31
2023-01-17T20:44:15.672Z,6.38
2023-01-17T20:46:44.588Z,6.30
2023-01-17T20:49:19.186Z,6.17
2023-01-17T20:51:48.453Z,6.25
2023-01-17T20:54:18.622Z,6.23
2023-01-17T20:59:40.494Z,5.91
2023-01-17T21:04:52.561Z,5.74
2023-01-17T21:07:20.999Z,5.73
2023-01-17T21:09:49.376Z,5.87
2023-01-17T21:12:17.791Z,6.04
2023-01-17T21:14:45.756Z,5.74
2023-01-17T21:17:16.494Z,5.98
2023-01-17T21:19:44.557Z,6.11
2023-01-17T21:22:16.955Z,6.28
2023-01-17T21:24:44.860Z,6.22
2023-01-17T21:27:13.326Z,6.28
2023-01-17T21:29:41.805Z,6.44
2023-01-17T21:32:10.985Z,6.34
2023-01-17T21:34:39.447Z,6.70
2023-01-17T21:37:07.689Z,6.53
2023-01-17T21:39:35.926Z,6.89
2023-01-17T21:42:03.984Z,6.97
2023-01-17T21:44:36.486Z,7.06
2023-01-17T21:47:04.673Z,7.06
2023-01-17T21:49:32.796Z,7.24
2023-01-17T21:52:00.829Z,7.63
2023-01-17T21:54:49.116Z,7.70
2023-01-17T21:57:38.890Z,7.73
2023-01-17T22:00:10.815Z,7.92
2023-01-17T22:02:45.088Z,8.00
2023-01-17T22:05:14.414Z,7.98
2023-01-17T22:08:01.244Z,8.06
2023-01-17T22:10:29.645Z,8.16
2023-01-17T22:12:57.637Z,8.13
2023-01-17T22:15:25.970Z,8.17
2023-01-17T22:17:54.275Z,8.36
2023-01-17T22:20:22.479Z,8.47
2023-01-17T22:22:50.502Z,8.52
2023-01-17T22:25:18.411Z,8.59
2023-01-17T22:27:46.413Z,8.61
2023-01-17T22:30:14.537Z,8.59
2023-01-17T22:32:42.591Z,8.62
2023-01-17T22:35:10.460Z,8.46
2023-01-17T22:37:38.474Z,8.59
2023-01-17T22:40:07.190Z,8.52
2023-01-17T22:42:35.251Z,8.56
2023-01-17T22:45:03.442Z,8.59
2023-01-17T22:47:33.299Z,8.69
2023-01-17T22:50:01.147Z,8.55
2023-01-17T22:52:29.312Z,8.36
2023-01-17T22:54:57.237Z,8.58
2023-01-17T22:57:25.228Z,8.47
2023-01-17T22:59:53.273Z,8.44
2023-01-17T23:02:21.461Z,8.47
2023-01-17T23:04:49.505Z,8.52
2023-01-17T23:07:17.791Z,8.45
2023-01-17T23:09:45.830Z,8.38
2023-01-17T23:12:13.635Z,8.24
2023-01-17T23:15:03.358Z,8.32
2023-01-17T23:17:49.854Z,8.35
2023-01-17T23:20:17.689Z,8.28
2023-01-17T23:22:45.646Z,8.37
2023-01-17T23:25:14.380Z,8.29
2023-01-17T23:28:05.916Z,8.33
2023-01-17T23:30:36.993Z,8.40
2023-01-17T23:33:10.406Z,8.32
2023-01-17T23:35:43.406Z,8.44
2023-01-17T23:38:30.984Z,8.34
2023-01-17T23:41:23.011Z,8.52
2023-01-17T23:43:55.582Z,8.52
2023-01-17T23:46:25.557Z,8.38
2023-01-17T23:48:55.228Z,8.40
2023-01-17T23:51:23.201Z,8.44
2023-01-17T23:53:55.351Z,8.38
2023-01-17T23:56:27.157Z,8.41
2023-01-17T23:58:54.825Z,8.75
